sensor_id;sensor_type;location;lat;lon;timestamp;temperature;humidity
31113;DHT22;17763;48.730;9.136;2023-08-21T00:00:11;24.70;99.90
31113;DHT22;17763;48.730;9.136;2023-08-21T00:02:39;24.60;99.90
31113;DHT22;17763;48.730;9.136;2023-08-21T00:05:04;24.60;99.90
31113;DHT22;17763;48.730;9.136;2023-08-21T00:07:30;24.60;99.90
31113;DHT22;17763;48.730;9.136;2023-08-21T00:09:56;24.60;99.90
31113;DHT22;17763;48.730;9.136;2023-08-21T00:12:21;24.60;99.90
31113;DHT22;17763;48.730;9.136;2023-08-21T00:14:47;24.50;99.90
31113;DHT22;17763;48.730;9.136;2023-08-21T00:17:12;24.50;99.90
31113;DHT22;17763;48.730;9.136;2023-08-21T00:19:38;24.50;99.90
31113;DHT22;17763;48.730;9.136;2023-08-21T00:22:04;24.50;99.90
31113;DHT22;17763;48.730;9.136;2023-08-21T00:24:30;24.50;99.90
31113;DHT22;17763;48.730;9.136;2023-08-21T00:26:55;24.50;99.90
31113;DHT22;17763;48.730;9.136;2023-08-21T00:29:21;24.40;99.90
31113;DHT22;17763;48.730;9.136;2023-08-21T00:31:47;24.40;99.90
31113;DHT22;17763;48.730;9.136;2023-08-21T00:34:12;24.40;99.90
31113;DHT22;17763;48.730;9.136;2023-08-21T00:36:40;24.40;99.90
31113;DHT22;17763;48.730;9.136;2023-08-21T00:39:06;24.40;99.90
31113;DHT22;17763;48.730;9.136;2023-08-21T00:41:34;24.40;99.90
31113;DHT22;17763;48.730;9.136;2023-08-21T00:44:02;24.40;99.90
31113;DHT22;17763;48.730;9.136;2023-08-21T00:46:28;24.30;99.90
31113;DHT22;17763;48.730;9.136;2023-08-21T00:48:53;24.30;99.90
31113;DHT22;17763;48.730;9.136;2023-08-21T00:51:19;24.30;99.90
31113;DHT22;17763;48.730;9.136;2023-08-21T00:53:45;24.30;99.90
31113;DHT22;17763;48.730;9.136;2023-08-21T00:56:13;24.20;99.90
31113;DHT22;17763;48.730;9.136;2023-08-21T00:58:39;24.20;99.90
31113;DHT22;17763;48.730;9.136;2023-08-21T01:01:08;24.20;99.90
31113;DHT22;17763;48.730;9.136;2023-08-21T01:03:34;24.20;99.90
31113;DHT22;17763;48.730;9.136;2023-08-21T01:06:00;24.20;99.90
31113;DHT22;17763;48.730;9.136;2023-08-21T01:11:21;24.10;99.90
31113;DHT22;17763;48.730;9.136;2023-08-21T01:16:37;24.00;99.90
31113;DHT22;17763;48.730;9.136;2023-08-21T01:19:09;24.00;99.90
31113;DHT22;17763;48.730;9.136;2023-08-21T01:21:38;24.00;99.90
31113;DHT22;17763;48.730;9.136;2023-08-21T01:24:06;24.00;99.90
31113;DHT22;17763;48.730;9.136;2023-08-21T01:26:31;23.90;99.90
31113;DHT22;17763;48.730;9.136;2023-08-21T01:28:57;24.00;99.90
31113;DHT22;17763;48.730;9.136;2023-08-21T01:31:32;23.90;99.90
31113;DHT22;17763;48.730;9.136;2023-08-21T01:34:01;23.90;99.90
31113;DHT22;17763;48.730;9.136;2023-08-21T01:36:32;23.80;99.90
31113;DHT22;17763;48.730;9.136;2023-08-21T01:38:59;23.80;99.90
31113;DHT22;17763;48.730;9.136;2023-08-21T01:41:25;23.80;99.90
31113;DHT22;17763;48.730;9.136;2023-08-21T01:43:53;23.80;99.90
31113;DHT22;17763;48.730;9.136;2023-08-21T01:46:23;23.80;99.90
31113;DHT22;17763;48.730;9.136;2023-08-21T01:48:49;23.70;99.90
31113;DHT22;17763;48.730;9.136;2023-08-21T01:51:14;23.70;99.90
31113;DHT22;17763;48.730;9.136;2023-08-21T01:53:40;23.70;99.90
31113;DHT22;17763;48.730;9.136;2023-08-21T01:56:06;23.70;99.90
31113;DHT22;17763;48.730;9.136;2023-08-21T01:58:31;23.70;99.90
31113;DHT22;17763;48.730;9.136;2023-08-21T02:00:57;23.70;99.90
31113;DHT22;17763;48.730;9.136;2023-08-21T02:03:25;23.70;99.90
31113;DHT22;17763;48.730;9.136;2023-08-21T02:05:55;23.60;99.90
31113;DHT22;17763;48.730;9.136;2023-08-21T02:08:25;23.60;99.90
31113;DHT22;17763;48.730;9.136;2023-08-21T02:10:52;23.60;99.90
31113;DHT22;17763;48.730;9.136;2023-08-21T02:13:18;23.60;99.90
31113;DHT22;17763;48.730;9.136;2023-08-21T02:15:44;23.60;99.90
31113;DHT22;17763;48.730;9.136;2023-08-21T02:18:12;23.60;99.90
31113;DHT22;17763;48.730;9.136;2023-08-21T02:20:38;23.60;99.90
31113;DHT22;17763;48.730;9.136;2023-08-21T02:23:04;23.60;99.90
31113;DHT22;17763;48.730;9.136;2023-08-21T02:25:31;23.60;99.90
31113;DHT22;17763;48.730;9.136;2023-08-21T02:28:01;23.60;99.90
31113;DHT22;17763;48.730;9.136;2023-08-21T02:30:29;23.60;99.90
31113;DHT22;17763;48.730;9.136;2023-08-21T02:32:55;23.50;99.90
31113;DHT22;17763;48.730;9.136;2023-08-21T02:35:21;23.50;99.90
31113;DHT22;17763;48.730;9.136;2023-08-21T02:37:46;23.50;99.90
31113;DHT22;17763;48.730;9.136;2023-08-21T02:40:12;23.40;99.90
31113;DHT22;17763;48.730;9.136;2023-08-21T02:42:40;23.40;99.90
31113;DHT22;17763;48.730;9.136;2023-08-21T02:45:06;23.40;99.90
31113;DHT22;17763;48.730;9.136;2023-08-21T02:47:36;23.40;99.90
31113;DHT22;17763;48.730;9.136;2023-08-21T02:50:06;23.40;99.90
31113;DHT22;17763;48.730;9.136;2023-08-21T02:52:34;23.40;99.90
31113;DHT22;17763;48.730;9.136;2023-08-21T02:55:01;23.30;99.90
31113;DHT22;17763;48.730;9.136;2023-08-21T02:57:27;23.30;99.90
31113;DHT22;17763;48.730;9.136;2023-08-21T02:59:54;23.30;99.90
31113;DHT22;17763;48.730;9.136;2023-08-21T03:02:19;23.30;99.90
31113;DHT22;17763;48.730;9.136;2023-08-21T03:04:45;23.30;99.90
31113;DHT22;17763;48.730;9.136;2023-08-21T03:07:13;23.30;99.90
31113;DHT22;17763;48.730;9.136;2023-08-21T03:09:40;23.30;99.90
31113;DHT22;17763;48.730;9.136;2023-08-21T03:12:08;23.20;99.90
31113;DHT22;17763;48.730;9.136;2023-08-21T03:14:34;23.20;99.90
31113;DHT22;17763;48.730;9.136;2023-08-21T03:17:00;23.10;99.90
31113;DHT22;17763;48.730;9.136;2023-08-21T03:19:26;23.10;99.90
31113;DHT22;17763;48.730;9.136;2023-08-21T03:21:51;23.10;99.90
31113;DHT22;17763;48.730;9.136;2023-08-21T03:24:17;23.10;99.90
31113;DHT22;17763;48.730;9.136;2023-08-21T03:26:43;23.10;99.90
31113;DHT22;17763;48.730;9.136;2023-08-21T03:29:08;23.00;99.90
31113;DHT22;17763;48.730;9.136;2023-08-21T03:31:34;23.00;99.90
31113;DHT22;17763;48.730;9.136;2023-08-21T03:34:00;23.00;99.90
31113;DHT22;17763;48.730;9.136;2023-08-21T03:36:25;22.90;99.90
31113;DHT22;17763;48.730;9.136;2023-08-21T03:39:00;22.90;99.90
31113;DHT22;17763;48.730;9.136;2023-08-21T03:41:26;22.90;99.90
31113;DHT22;17763;48.730;9.136;2023-08-21T03:43:54;22.90;99.90
31113;DHT22;17763;48.730;9.136;2023-08-21T03:46:20;22.90;99.90
31113;DHT22;17763;48.730;9.136;2023-08-21T03:48:48;22.90;99.90
31113;DHT22;17763;48.730;9.136;2023-08-21T03:51:13;22.80;99.90
31113;DHT22;17763;48.730;9.136;2023-08-21T03:53:39;22.80;99.90
31113;DHT22;17763;48.730;9.136;2023-08-21T03:56:05;22.80;99.90
31113;DHT22;17763;48.730;9.136;2023-08-21T03:58:32;22.80;99.90
31113;DHT22;17763;48.730;9.136;2023-08-21T04:00:57;22.70;99.90
31113;DHT22;17763;48.730;9.136;2023-08-21T04:03:23;22.70;99.90
31113;DHT22;17763;48.730;9.136;2023-08-21T04:05:49;22.70;99.90
31113;DHT22;17763;48.730;9.136;2023-08-21T04:08:14;22.60;99.90
31113;DHT22;17763;48.730;9.136;2023-08-21T04:10:42;22.60;99.90
31113;DHT22;17763;48.730;9.136;2023-08-21T04:13:10;22.60;99.90
31113;DHT22;17763;48.730;9.136;2023-08-21T04:15:38;22.60;99.90
31113;DHT22;17763;48.730;9.136;2023-08-21T04:18:04;22.60;99.90
31113;DHT22;17763;48.730;9.136;2023-08-21T04:20:32;22.60;99.90
31113;DHT22;17763;48.730;9.136;2023-08-21T04:22:58;22.60;99.90
31113;DHT22;17763;48.730;9.136;2023-08-21T04:25:23;22.60;99.90
31113;DHT22;17763;48.730;9.136;2023-08-21T04:27:49;22.50;99.90
31113;DHT22;17763;48.730;9.136;2023-08-21T04:30:15;22.50;99.90
31113;DHT22;17763;48.730;9.136;2023-08-21T04:32:42;22.50;99.90
31113;DHT22;17763;48.730;9.136;2023-08-21T04:35:08;22.50;99.90
31113;DHT22;17763;48.730;9.136;2023-08-21T04:37:38;22.50;99.90
31113;DHT22;17763;48.730;9.136;2023-08-21T04:40:10;22.50;99.90
31113;DHT22;17763;48.730;9.136;2023-08-21T04:42:38;22.50;99.90
31113;DHT22;17763;48.730;9.136;2023-08-21T04:45:04;22.50;99.90
31113;DHT22;17763;48.730;9.136;2023-08-21T04:47:31;22.40;99.90
31113;DHT22;17763;48.730;9.136;2023-08-21T04:49:57;22.50;99.90
31113;DHT22;17763;48.730;9.136;2023-08-21T04:52:27;22.50;99.90
31113;DHT22;17763;48.730;9.136;2023-08-21T04:54:55;22.40;99.90
31113;DHT22;17763;48.730;9.136;2023-08-21T04:57:21;22.50;99.90
31113;DHT22;17763;48.730;9.136;2023-08-21T04:59:47;22.50;99.90
31113;DHT22;17763;48.730;9.136;2023-08-21T05:02:13;22.50;99.90
31113;DHT22;17763;48.730;9.136;2023-08-21T05:04:39;22.60;99.90
31113;DHT22;17763;48.730;9.136;2023-08-21T05:07:05;22.70;99.90
31113;DHT22;17763;48.730;9.136;2023-08-21T05:09:34;22.70;99.90
31113;DHT22;17763;48.730;9.136;2023-08-21T05:11:59;22.80;99.90
31113;DHT22;17763;48.730;9.136;2023-08-21T05:14:25;22.90;99.90
31113;DHT22;17763;48.730;9.136;2023-08-21T05:16:51;22.90;99.90
31113;DHT22;17763;48.730;9.136;2023-08-21T05:19:17;23.00;99.90
31113;DHT22;17763;48.730;9.136;2023-08-21T05:21:44;23.10;99.90
31113;DHT22;17763;48.730;9.136;2023-08-21T05:24:12;23.20;99.90
31113;DHT22;17763;48.730;9.136;2023-08-21T05:26:38;23.30;99.90
31113;DHT22;17763;48.730;9.136;2023-08-21T05:29:04;23.40;99.90
31113;DHT22;17763;48.730;9.136;2023-08-21T05:31:30;23.50;99.90
31113;DHT22;17763;48.730;9.136;2023-08-21T05:33:56;23.60;99.90
31113;DHT22;17763;48.730;9.136;2023-08-21T05:36:21;23.70;99.90
31113;DHT22;17763;48.730;9.136;2023-08-21T05:38:47;23.80;99.90
31113;DHT22;17763;48.730;9.136;2023-08-21T05:41:14;23.90;99.90
31113;DHT22;17763;48.730;9.136;2023-08-21T05:43:40;24.00;99.90
31113;DHT22;17763;48.730;9.136;2023-08-21T05:46:07;24.10;99.90
31113;DHT22;17763;48.730;9.136;2023-08-21T05:48:33;24.20;99.90
31113;DHT22;17763;48.730;9.136;2023-08-21T05:50:59;24.30;99.90
31113;DHT22;17763;48.730;9.136;2023-08-21T05:53:25;24.50;99.90
31113;DHT22;17763;48.730;9.136;2023-08-21T05:55:50;24.60;99.90
31113;DHT22;17763;48.730;9.136;2023-08-21T05:58:16;24.60;99.90
31113;DHT22;17763;48.730;9.136;2023-08-21T06:00:44;24.80;99.90
31113;DHT22;17763;48.730;9.136;2023-08-21T06:03:10;24.90;99.90
31113;DHT22;17763;48.730;9.136;2023-08-21T06:05:36;25.00;99.90
31113;DHT22;17763;48.730;9.136;2023-08-21T06:08:04;25.10;99.90
31113;DHT22;17763;48.730;9.136;2023-08-21T06:10:31;25.20;99.90
31113;DHT22;17763;48.730;9.136;2023-08-21T06:12:57;25.30;99.90
31113;DHT22;17763;48.730;9.136;2023-08-21T06:15:22;25.40;99.90
31113;DHT22;17763;48.730;9.136;2023-08-21T06:17:48;25.50;99.90
31113;DHT22;17763;48.730;9.136;2023-08-21T06:20:14;25.70;99.90
31113;DHT22;17763;48.730;9.136;2023-08-21T06:22:44;25.80;99.90
31113;DHT22;17763;48.730;9.136;2023-08-21T06:25:10;26.00;99.90
31113;DHT22;17763;48.730;9.136;2023-08-21T06:27:35;26.00;99.90
31113;DHT22;17763;48.730;9.136;2023-08-21T06:30:01;26.20;99.90
31113;DHT22;17763;48.730;9.136;2023-08-21T06:32:27;26.20;99.90
31113;DHT22;17763;48.730;9.136;2023-08-21T06:34:55;26.30;99.90
31113;DHT22;17763;48.730;9.136;2023-08-21T06:37:21;26.50;99.90
31113;DHT22;17763;48.730;9.136;2023-08-21T06:39:46;26.50;99.90
31113;DHT22;17763;48.730;9.136;2023-08-21T06:42:12;26.60;99.90
31113;DHT22;17763;48.730;9.136;2023-08-21T06:44:37;26.70;99.90
31113;DHT22;17763;48.730;9.136;2023-08-21T06:47:03;26.70;99.90
31113;DHT22;17763;48.730;9.136;2023-08-21T06:49:29;26.70;99.90
31113;DHT22;17763;48.730;9.136;2023-08-21T06:51:55;26.80;99.90
31113;DHT22;17763;48.730;9.136;2023-08-21T06:54:20;26.80;99.90
31113;DHT22;17763;48.730;9.136;2023-08-21T06:56:46;26.80;99.90
31113;DHT22;17763;48.730;9.136;2023-08-21T06:59:12;26.80;99.90
31113;DHT22;17763;48.730;9.136;2023-08-21T07:01:37;26.80;99.90
31113;DHT22;17763;48.730;9.136;2023-08-21T07:04:05;26.80;99.90
31113;DHT22;17763;48.730;9.136;2023-08-21T07:06:31;26.90;99.90
31113;DHT22;17763;48.730;9.136;2023-08-21T07:08:59;27.00;99.90
31113;DHT22;17763;48.730;9.136;2023-08-21T07:11:27;27.00;99.90
31113;DHT22;17763;48.730;9.136;2023-08-21T07:13:53;27.10;99.90
31113;DHT22;17763;48.730;9.136;2023-08-21T07:16:18;27.20;99.90
31113;DHT22;17763;48.730;9.136;2023-08-21T07:18:46;27.30;99.90
31113;DHT22;17763;48.730;9.136;2023-08-21T07:21:14;27.30;99.90
31113;DHT22;17763;48.730;9.136;2023-08-21T07:23:42;27.40;99.90
31113;DHT22;17763;48.730;9.136;2023-08-21T07:26:13;27.30;99.90
31113;DHT22;17763;48.730;9.136;2023-08-21T07:28:39;27.50;99.90
31113;DHT22;17763;48.730;9.136;2023-08-21T07:31:07;27.50;99.80
31113;DHT22;17763;48.730;9.136;2023-08-21T07:33:33;27.60;99.90
31113;DHT22;17763;48.730;9.136;2023-08-21T07:36:05;27.60;99.60
31113;DHT22;17763;48.730;9.136;2023-08-21T07:38:33;27.70;99.30
31113;DHT22;17763;48.730;9.136;2023-08-21T07:41:05;27.70;99.30
31113;DHT22;17763;48.730;9.136;2023-08-21T07:43:33;27.70;98.90
31113;DHT22;17763;48.730;9.136;2023-08-21T07:46:02;27.70;98.80
31113;DHT22;17763;48.730;9.136;2023-08-21T07:48:28;27.90;98.70
31113;DHT22;17763;48.730;9.136;2023-08-21T07:50:54;28.00;98.70
31113;DHT22;17763;48.730;9.136;2023-08-21T07:53:19;28.00;98.50
31113;DHT22;17763;48.730;9.136;2023-08-21T07:55:48;28.10;98.50
31113;DHT22;17763;48.730;9.136;2023-08-21T07:58:13;28.10;98.10
31113;DHT22;17763;48.730;9.136;2023-08-21T08:00:39;28.30;98.20
31113;DHT22;17763;48.730;9.136;2023-08-21T08:03:07;28.30;98.00
31113;DHT22;17763;48.730;9.136;2023-08-21T08:05:33;28.50;98.00
31113;DHT22;17763;48.730;9.136;2023-08-21T08:08:01;28.40;97.40
31113;DHT22;17763;48.730;9.136;2023-08-21T08:10:26;28.40;97.30
31113;DHT22;17763;48.730;9.136;2023-08-21T08:12:54;28.60;97.20
31113;DHT22;17763;48.730;9.136;2023-08-21T08:15:21;28.80;97.50
31113;DHT22;17763;48.730;9.136;2023-08-21T08:17:49;28.80;97.20
31113;DHT22;17763;48.730;9.136;2023-08-21T08:20:19;28.80;97.10
31113;DHT22;17763;48.730;9.136;2023-08-21T08:22:45;28.90;96.50
31113;DHT22;17763;48.730;9.136;2023-08-21T08:25:10;28.80;96.30
31113;DHT22;17763;48.730;9.136;2023-08-21T08:27:36;29.00;96.40
31113;DHT22;17763;48.730;9.136;2023-08-21T08:30:03;29.10;96.30
31113;DHT22;17763;48.730;9.136;2023-08-21T08:32:32;29.20;96.10
31113;DHT22;17763;48.730;9.136;2023-08-21T08:34:57;29.20;96.10
31113;DHT22;17763;48.730;9.136;2023-08-21T08:37:23;29.20;96.20
31113;DHT22;17763;48.730;9.136;2023-08-21T08:39:49;29.30;95.80
31113;DHT22;17763;48.730;9.136;2023-08-21T08:42:15;29.30;94.90
31113;DHT22;17763;48.730;9.136;2023-08-21T08:44:42;29.40;95.00
31113;DHT22;17763;48.730;9.136;2023-08-21T08:47:10;29.30;95.10
31113;DHT22;17763;48.730;9.136;2023-08-21T08:49:37;29.30;95.00
31113;DHT22;17763;48.730;9.136;2023-08-21T08:52:03;29.50;95.50
31113;DHT22;17763;48.730;9.136;2023-08-21T08:54:30;29.50;94.30
31113;DHT22;17763;48.730;9.136;2023-08-21T08:56:56;29.40;94.20
31113;DHT22;17763;48.730;9.136;2023-08-21T08:59:22;29.30;94.20
31113;DHT22;17763;48.730;9.136;2023-08-21T09:01:51;29.40;94.00
31113;DHT22;17763;48.730;9.136;2023-08-21T09:04:19;29.40;93.90
31113;DHT22;17763;48.730;9.136;2023-08-21T09:06:46;29.40;94.00
31113;DHT22;17763;48.730;9.136;2023-08-21T09:09:12;29.50;93.50
31113;DHT22;17763;48.730;9.136;2023-08-21T09:11:42;29.50;93.40
31113;DHT22;17763;48.730;9.136;2023-08-21T09:14:10;29.50;92.50
31113;DHT22;17763;48.730;9.136;2023-08-21T09:16:35;29.40;93.00
31113;DHT22;17763;48.730;9.136;2023-08-21T09:19:01;29.30;93.50
31113;DHT22;17763;48.730;9.136;2023-08-21T09:21:28;29.30;92.60
31113;DHT22;17763;48.730;9.136;2023-08-21T09:23:59;29.20;91.80
31113;DHT22;17763;48.730;9.136;2023-08-21T09:26:26;29.20;92.20
31113;DHT22;17763;48.730;9.136;2023-08-21T09:28:52;29.10;91.60
31113;DHT22;17763;48.730;9.136;2023-08-21T09:31:31;29.20;91.30
31113;DHT22;17763;48.730;9.136;2023-08-21T09:33:58;29.40;91.40
31113;DHT22;17763;48.730;9.136;2023-08-21T09:36:23;29.50;91.10
31113;DHT22;17763;48.730;9.136;2023-08-21T09:38:51;29.50;90.60
31113;DHT22;17763;48.730;9.136;2023-08-21T09:41:21;29.60;90.00
31113;DHT22;17763;48.730;9.136;2023-08-21T09:43:47;29.70;89.40
31113;DHT22;17763;48.730;9.136;2023-08-21T09:46:26;29.60;90.30
31113;DHT22;17763;48.730;9.136;2023-08-21T09:48:55;29.60;90.20
31113;DHT22;17763;48.730;9.136;2023-08-21T09:51:21;29.60;87.30
31113;DHT22;17763;48.730;9.136;2023-08-21T09:53:50;29.50;86.40
31113;DHT22;17763;48.730;9.136;2023-08-21T09:56:18;29.50;85.10
31113;DHT22;17763;48.730;9.136;2023-08-21T09:58:45;29.50;86.20
31113;DHT22;17763;48.730;9.136;2023-08-21T10:01:14;29.40;87.20
31113;DHT22;17763;48.730;9.136;2023-08-21T10:03:43;29.50;88.60
31113;DHT22;17763;48.730;9.136;2023-08-21T10:06:17;29.50;86.80
31113;DHT22;17763;48.730;9.136;2023-08-21T10:08:46;29.60;86.50
31113;DHT22;17763;48.730;9.136;2023-08-21T10:11:17;29.70;86.90
31113;DHT22;17763;48.730;9.136;2023-08-21T10:13:45;29.70;84.50
31113;DHT22;17763;48.730;9.136;2023-08-21T10:16:11;29.70;83.20
31113;DHT22;17763;48.730;9.136;2023-08-21T10:18:37;29.80;84.30
31113;DHT22;17763;48.730;9.136;2023-08-21T10:21:20;29.80;82.30
31113;DHT22;17763;48.730;9.136;2023-08-21T10:23:50;29.90;82.50
31113;DHT22;17763;48.730;9.136;2023-08-21T10:26:20;29.90;84.00
31113;DHT22;17763;48.730;9.136;2023-08-21T10:31:42;30.20;83.90
31113;DHT22;17763;48.730;9.136;2023-08-21T10:34:14;30.40;83.30
31113;DHT22;17763;48.730;9.136;2023-08-21T10:41:59;30.80;83.10
31113;DHT22;17763;48.730;9.136;2023-08-21T10:49:54;30.90;79.90
31113;DHT22;17763;48.730;9.136;2023-08-21T10:52:28;31.00;81.00
31113;DHT22;17763;48.730;9.136;2023-08-21T10:54:56;31.00;82.00
31113;DHT22;17763;48.730;9.136;2023-08-21T10:57:23;31.10;80.60
31113;DHT22;17763;48.730;9.136;2023-08-21T11:02:23;31.10;80.20
31113;DHT22;17763;48.730;9.136;2023-08-21T11:04:50;31.10;79.50
31113;DHT22;17763;48.730;9.136;2023-08-21T11:07:16;31.20;78.20
31113;DHT22;17763;48.730;9.136;2023-08-21T11:09:42;31.30;77.90
31113;DHT22;17763;48.730;9.136;2023-08-21T11:12:09;31.30;77.80
31113;DHT22;17763;48.730;9.136;2023-08-21T11:14:35;31.40;77.30
31113;DHT22;17763;48.730;9.136;2023-08-21T11:17:01;31.40;77.30
31113;DHT22;17763;48.730;9.136;2023-08-21T11:19:27;31.50;77.60
31113;DHT22;17763;48.730;9.136;2023-08-21T11:21:52;31.60;77.80
31113;DHT22;17763;48.730;9.136;2023-08-21T11:24:18;31.50;77.90
31113;DHT22;17763;48.730;9.136;2023-08-21T11:26:44;31.50;76.70
31113;DHT22;17763;48.730;9.136;2023-08-21T11:29:09;31.50;77.20
31113;DHT22;17763;48.730;9.136;2023-08-21T11:31:35;31.50;76.90
31113;DHT22;17763;48.730;9.136;2023-08-21T11:34:02;31.50;76.20
31113;DHT22;17763;48.730;9.136;2023-08-21T11:36:28;31.40;76.20
31113;DHT22;17763;48.730;9.136;2023-08-21T11:39:05;31.30;77.10
31113;DHT22;17763;48.730;9.136;2023-08-21T11:41:31;31.30;77.30
31113;DHT22;17763;48.730;9.136;2023-08-21T11:44:02;31.40;77.50
31113;DHT22;17763;48.730;9.136;2023-08-21T11:46:31;31.20;75.90
31113;DHT22;17763;48.730;9.136;2023-08-21T11:48:57;31.20;76.10
31113;DHT22;17763;48.730;9.136;2023-08-21T11:51:22;31.20;77.00
31113;DHT22;17763;48.730;9.136;2023-08-21T11:53:48;31.10;76.50
31113;DHT22;17763;48.730;9.136;2023-08-21T11:56:17;31.00;76.20
31113;DHT22;17763;48.730;9.136;2023-08-21T11:58:46;31.00;76.00
31113;DHT22;17763;48.730;9.136;2023-08-21T12:01:19;30.90;76.20
31113;DHT22;17763;48.730;9.136;2023-08-21T12:03:45;31.00;76.80
31113;DHT22;17763;48.730;9.136;2023-08-21T12:06:13;31.10;76.50
31113;DHT22;17763;48.730;9.136;2023-08-21T12:08:39;31.30;75.00
31113;DHT22;17763;48.730;9.136;2023-08-21T12:11:06;31.20;74.30
31113;DHT22;17763;48.730;9.136;2023-08-21T12:13:31;31.20;73.70
31113;DHT22;17763;48.730;9.136;2023-08-21T12:15:57;31.20;73.50
31113;DHT22;17763;48.730;9.136;2023-08-21T12:18:25;31.30;74.40
31113;DHT22;17763;48.730;9.136;2023-08-21T12:20:51;31.40;76.00
31113;DHT22;17763;48.730;9.136;2023-08-21T12:23:16;31.50;75.90
31113;DHT22;17763;48.730;9.136;2023-08-21T12:25:44;31.60;75.60
31113;DHT22;17763;48.730;9.136;2023-08-21T12:28:13;31.60;74.60
31113;DHT22;17763;48.730;9.136;2023-08-21T12:30:39;31.50;74.00
31113;DHT22;17763;48.730;9.136;2023-08-21T12:33:05;31.60;74.70
31113;DHT22;17763;48.730;9.136;2023-08-21T12:35:35;31.50;76.20
31113;DHT22;17763;48.730;9.136;2023-08-21T12:38:01;31.40;76.70
31113;DHT22;17763;48.730;9.136;2023-08-21T12:40:33;31.30;75.30
31113;DHT22;17763;48.730;9.136;2023-08-21T12:42:59;31.20;75.50
31113;DHT22;17763;48.730;9.136;2023-08-21T12:45:24;31.20;76.40
31113;DHT22;17763;48.730;9.136;2023-08-21T12:47:50;31.00;76.20
31113;DHT22;17763;48.730;9.136;2023-08-21T12:50:16;31.00;75.80
31113;DHT22;17763;48.730;9.136;2023-08-21T12:52:44;31.00;75.00
31113;DHT22;17763;48.730;9.136;2023-08-21T12:55:12;30.80;76.30
31113;DHT22;17763;48.730;9.136;2023-08-21T12:57:39;30.80;77.20
31113;DHT22;17763;48.730;9.136;2023-08-21T13:00:05;30.70;77.50
31113;DHT22;17763;48.730;9.136;2023-08-21T13:02:33;30.70;77.10
31113;DHT22;17763;48.730;9.136;2023-08-21T13:04:59;30.70;80.40
31113;DHT22;17763;48.730;9.136;2023-08-21T13:07:25;30.70;81.00
31113;DHT22;17763;48.730;9.136;2023-08-21T13:09:50;30.90;80.60
31113;DHT22;17763;48.730;9.136;2023-08-21T13:12:18;31.00;78.50
31113;DHT22;17763;48.730;9.136;2023-08-21T13:14:44;31.00;77.20
31113;DHT22;17763;48.730;9.136;2023-08-21T13:17:11;31.00;78.10
31113;DHT22;17763;48.730;9.136;2023-08-21T13:19:37;31.00;78.10
31113;DHT22;17763;48.730;9.136;2023-08-21T13:22:02;31.00;77.80
31113;DHT22;17763;48.730;9.136;2023-08-21T13:24:30;30.90;76.40
31113;DHT22;17763;48.730;9.136;2023-08-21T13:26:57;30.80;77.10
31113;DHT22;17763;48.730;9.136;2023-08-21T13:29:23;30.70;77.40
31113;DHT22;17763;48.730;9.136;2023-08-21T13:31:48;30.70;77.20
31113;DHT22;17763;48.730;9.136;2023-08-21T13:34:14;30.60;77.50
31113;DHT22;17763;48.730;9.136;2023-08-21T13:36:40;30.60;77.40
31113;DHT22;17763;48.730;9.136;2023-08-21T13:39:05;30.50;77.30
31113;DHT22;17763;48.730;9.136;2023-08-21T13:41:31;30.50;77.40
31113;DHT22;17763;48.730;9.136;2023-08-21T13:43:57;30.70;77.60
31113;DHT22;17763;48.730;9.136;2023-08-21T13:46:23;30.80;76.70
31113;DHT22;17763;48.730;9.136;2023-08-21T13:48:48;31.00;76.30
31113;DHT22;17763;48.730;9.136;2023-08-21T13:51:14;31.10;76.20
31113;DHT22;17763;48.730;9.136;2023-08-21T13:53:40;31.20;74.60
31113;DHT22;17763;48.730;9.136;2023-08-21T13:56:06;31.30;75.20
31113;DHT22;17763;48.730;9.136;2023-08-21T13:58:31;31.40;75.80
31113;DHT22;17763;48.730;9.136;2023-08-21T14:00:57;31.40;75.40
31113;DHT22;17763;48.730;9.136;2023-08-21T14:03:23;31.30;74.30
31113;DHT22;17763;48.730;9.136;2023-08-21T14:05:50;31.20;74.40
31113;DHT22;17763;48.730;9.136;2023-08-21T14:08:15;31.10;73.40
31113;DHT22;17763;48.730;9.136;2023-08-21T14:10:43;31.00;74.00
31113;DHT22;17763;48.730;9.136;2023-08-21T14:13:09;31.00;75.40
31113;DHT22;17763;48.730;9.136;2023-08-21T14:15:35;30.90;75.10
31113;DHT22;17763;48.730;9.136;2023-08-21T14:18:00;30.90;75.90
31113;DHT22;17763;48.730;9.136;2023-08-21T14:20:26;31.00;76.90
31113;DHT22;17763;48.730;9.136;2023-08-21T14:22:52;31.20;76.00
31113;DHT22;17763;48.730;9.136;2023-08-21T14:25:18;31.40;75.30
31113;DHT22;17763;48.730;9.136;2023-08-21T14:27:43;31.40;74.20
31113;DHT22;17763;48.730;9.136;2023-08-21T14:30:09;31.50;74.20
31113;DHT22;17763;48.730;9.136;2023-08-21T14:32:35;31.70;74.50
31113;DHT22;17763;48.730;9.136;2023-08-21T14:35:05;31.70;73.80
31113;DHT22;17763;48.730;9.136;2023-08-21T14:37:33;31.70;73.60
31113;DHT22;17763;48.730;9.136;2023-08-21T14:40:01;31.90;74.10
31113;DHT22;17763;48.730;9.136;2023-08-21T14:42:33;31.90;72.70
31113;DHT22;17763;48.730;9.136;2023-08-21T14:44:59;32.10;73.00
31113;DHT22;17763;48.730;9.136;2023-08-21T14:47:24;32.20;72.10
31113;DHT22;17763;48.730;9.136;2023-08-21T14:49:50;32.30;70.90
31113;DHT22;17763;48.730;9.136;2023-08-21T14:52:16;32.30;71.20
31113;DHT22;17763;48.730;9.136;2023-08-21T14:54:42;32.40;71.30
31113;DHT22;17763;48.730;9.136;2023-08-21T14:57:10;32.40;70.10
31113;DHT22;17763;48.730;9.136;2023-08-21T14:59:36;32.40;70.80
31113;DHT22;17763;48.730;9.136;2023-08-21T15:02:01;32.40;70.30
31113;DHT22;17763;48.730;9.136;2023-08-21T15:04:29;32.40;70.10
31113;DHT22;17763;48.730;9.136;2023-08-21T15:06:57;32.50;70.40
31113;DHT22;17763;48.730;9.136;2023-08-21T15:09:23;32.50;70.50
31113;DHT22;17763;48.730;9.136;2023-08-21T15:11:49;32.60;70.60
31113;DHT22;17763;48.730;9.136;2023-08-21T15:14:15;32.70;70.50
31113;DHT22;17763;48.730;9.136;2023-08-21T15:16:40;32.60;69.70
31113;DHT22;17763;48.730;9.136;2023-08-21T15:19:06;32.60;69.20
31113;DHT22;17763;48.730;9.136;2023-08-21T15:21:31;32.60;69.10
31113;DHT22;17763;48.730;9.136;2023-08-21T15:23:57;32.60;69.20
31113;DHT22;17763;48.730;9.136;2023-08-21T15:26:26;32.60;69.30
31113;DHT22;17763;48.730;9.136;2023-08-21T15:28:54;32.70;69.90
31113;DHT22;17763;48.730;9.136;2023-08-21T15:31:20;32.70;68.90
31113;DHT22;17763;48.730;9.136;2023-08-21T15:33:45;32.70;69.00
31113;DHT22;17763;48.730;9.136;2023-08-21T15:36:13;32.70;68.20
31113;DHT22;17763;48.730;9.136;2023-08-21T15:38:40;32.70;68.60
31113;DHT22;17763;48.730;9.136;2023-08-21T15:41:08;32.70;69.10
31113;DHT22;17763;48.730;9.136;2023-08-21T15:43:34;32.60;69.60
31113;DHT22;17763;48.730;9.136;2023-08-21T15:46:03;32.50;69.70
31113;DHT22;17763;48.730;9.136;2023-08-21T15:48:30;32.50;70.50